createdAt,value
2023-04-25T00:02:18.915Z,6.80
2023-04-25T00:04:46.076Z,6.80
2023-04-25T00:07:13.610Z,7.30
2023-04-25T00:09:40.288Z,8.48
2023-04-25T00:12:07.246Z,7.18
2023-04-25T00:14:36.582Z,7.90
2023-04-25T00:17:03.800Z,7.43
2023-04-25T00:19:30.523Z,6.63
2023-04-25T00:21:57.171Z,7.97
2023-04-25T00:24:23.886Z,8.35
2023-04-25T00:26:50.652Z,8.00
2023-04-25T00:29:17.283Z,7.70
2023-04-25T00:31:43.989Z,8.20
2023-04-25T00:34:10.656Z,7.57
2023-04-25T00:36:39.034Z,8.57
2023-04-25T00:39:05.633Z,7.85
2023-04-25T00:41:32.525Z,7.95
2023-04-25T00:44:00.276Z,7.90
2023-04-25T00:46:26.993Z,8.23
2023-04-25T00:48:53.672Z,8.00
2023-04-25T00:51:23.476Z,8.32
2023-04-25T00:53:51.724Z,8.05
2023-04-25T00:56:19.069Z,8.65
2023-04-25T00:58:46.440Z,8.25
2023-04-25T01:01:14.108Z,8.35
2023-04-25T01:03:42.114Z,7.90
2023-04-25T01:06:10.621Z,9.20
2023-04-25T01:08:39.033Z,8.18
2023-04-25T01:11:06.507Z,8.73
2023-04-25T01:13:34.202Z,8.30
2023-04-25T01:16:02.354Z,8.15
2023-04-25T01:18:29.431Z,7.85
2023-04-25T01:20:56.705Z,7.68
2023-04-25T01:23:23.800Z,8.25
2023-04-25T01:25:51.857Z,8.57
2023-04-25T01:28:19.008Z,8.50
2023-04-25T01:30:46.020Z,8.30
2023-04-25T01:33:14.984Z,8.20
2023-04-25T01:35:41.664Z,8.43
2023-04-25T01:38:08.676Z,8.25
2023-04-25T01:40:37.148Z,8.80
2023-04-25T01:43:03.848Z,8.98
2023-04-25T01:45:30.556Z,9.13
2023-04-25T01:48:00.299Z,8.75
2023-04-25T01:50:27.169Z,8.45
2023-04-25T01:52:54.720Z,8.30
2023-04-25T01:55:21.432Z,8.80
2023-04-25T01:57:48.121Z,8.52
2023-04-25T02:00:15.030Z,8.70
2023-04-25T02:02:41.993Z,8.18
2023-04-25T02:05:09.072Z,8.30
2023-04-25T02:07:35.714Z,8.60
2023-04-25T02:10:02.532Z,8.32
2023-04-25T02:12:29.430Z,8.18
2023-04-25T02:14:56.058Z,8.07
2023-04-25T02:17:22.800Z,8.00
2023-04-25T02:19:49.569Z,8.07
2023-04-25T02:22:16.217Z,8.80
2023-04-25T02:24:42.850Z,8.38
2023-04-25T02:27:09.545Z,8.68
2023-04-25T02:29:36.185Z,9.02
2023-04-25T02:32:03.107Z,8.68
2023-04-25T02:34:29.716Z,8.35
2023-04-25T02:36:56.325Z,8.93
2023-04-25T02:39:23.245Z,8.95
2023-04-25T02:41:49.899Z,9.43
2023-04-25T02:44:16.482Z,8.23
2023-04-25T02:46:43.117Z,10.63
2023-04-25T02:49:09.734Z,8.73
2023-04-25T02:51:36.430Z,8.45
2023-04-25T02:54:03.175Z,8.93
2023-04-25T02:56:29.782Z,8.50
2023-04-25T02:58:56.397Z,9.23
2023-04-25T03:01:23.108Z,8.43
2023-04-25T03:03:49.863Z,7.75
2023-04-25T03:06:16.963Z,9.25
2023-04-25T03:08:43.896Z,8.63
2023-04-25T03:11:11.388Z,9.00
2023-04-25T03:13:38.223Z,9.15
2023-04-25T03:16:05.367Z,7.95
2023-04-25T03:18:32.079Z,8.75
2023-04-25T03:20:58.819Z,8.90
2023-04-25T03:23:25.616Z,9.80
2023-04-25T03:25:52.292Z,8.52
2023-04-25T03:28:19.000Z,8.75
2023-04-25T03:30:45.663Z,9.02
2023-04-25T03:33:12.382Z,10.00
2023-04-25T03:35:38.999Z,9.13
2023-04-25T03:38:05.600Z,9.45
2023-04-25T03:40:32.272Z,8.93
2023-04-25T03:42:58.888Z,9.63
2023-04-25T03:45:25.753Z,9.73
2023-04-25T03:47:52.430Z,9.82
2023-04-25T03:50:19.065Z,9.80
2023-04-25T03:52:45.736Z,8.95
2023-04-25T03:55:12.376Z,9.88
2023-04-25T03:57:39.202Z,9.32
2023-04-25T04:00:07.565Z,8.93
2023-04-25T04:02:35.918Z,9.18
2023-04-25T04:05:03.770Z,9.40
2023-04-25T04:07:30.869Z,9.60
2023-04-25T04:09:57.475Z,9.40
2023-04-25T04:12:24.101Z,10.23
2023-04-25T04:14:50.737Z,9.90
2023-04-25T04:17:17.350Z,9.90
2023-04-25T04:19:43.971Z,10.48
2023-04-25T04:22:10.962Z,10.60
2023-04-25T04:24:37.588Z,11.13
2023-04-25T04:27:05.075Z,10.55
2023-04-25T04:29:31.985Z,11.82
2023-04-25T04:31:58.866Z,11.63
2023-04-25T04:34:26.703Z,11.98
2023-04-25T04:36:53.331Z,11.60
2023-04-25T04:39:19.916Z,11.98
2023-04-25T04:41:46.532Z,12.18
2023-04-25T04:44:13.365Z,11.85
2023-04-25T04:46:43.255Z,10.82
2023-04-25T04:49:11.106Z,9.23
2023-04-25T04:51:38.312Z,9.80
2023-04-25T04:54:05.640Z,9.85
2023-04-25T04:56:32.727Z,9.77
2023-04-25T04:58:59.695Z,9.45
2023-04-25T05:01:27.479Z,8.93
2023-04-25T05:03:54.997Z,9.05
2023-04-25T05:06:22.031Z,9.70
2023-04-25T05:08:48.738Z,8.90
2023-04-25T05:11:15.385Z,9.73
2023-04-25T05:13:42.041Z,8.57
2023-04-25T05:16:08.708Z,9.90
2023-04-25T05:18:36.359Z,9.18
2023-04-25T05:21:02.991Z,8.70
2023-04-25T05:23:32.139Z,9.40
2023-04-25T05:26:00.396Z,9.93
2023-04-25T05:28:27.120Z,9.27
2023-04-25T05:30:54.120Z,10.75
2023-04-25T05:33:20.950Z,9.80
2023-04-25T05:35:47.765Z,10.55
2023-04-25T05:38:14.388Z,9.75
2023-04-25T05:40:41.020Z,10.15
2023-04-25T05:43:08.158Z,10.27
2023-04-25T05:45:34.829Z,12.57
2023-04-25T05:48:01.592Z,9.30
2023-04-25T05:50:28.365Z,10.35
2023-04-25T05:52:55.051Z,9.50
2023-04-25T05:55:21.713Z,9.00
2023-04-25T05:57:49.557Z,8.65
2023-04-25T06:00:18.122Z,9.30
2023-04-25T06:02:44.902Z,8.45
2023-04-25T06:05:11.951Z,8.55
2023-04-25T06:07:38.776Z,8.90
2023-04-25T06:10:07.590Z,8.35
2023-04-25T06:12:34.404Z,8.80
2023-04-25T06:15:02.128Z,8.18
2023-04-25T06:17:29.252Z,7.60
2023-04-25T06:19:55.884Z,7.55
2023-04-25T06:22:22.547Z,7.78
2023-04-25T06:24:49.274Z,7.10
2023-04-25T06:27:17.086Z,8.10
2023-04-25T06:29:43.889Z,7.78
2023-04-25T06:32:10.557Z,8.40
2023-04-25T06:34:37.185Z,8.30
2023-04-25T06:37:03.794Z,8.18
2023-04-25T06:39:30.458Z,8.07
2023-04-25T06:41:57.083Z,7.80
2023-04-25T06:44:25.021Z,8.48
2023-04-25T06:46:51.837Z,7.60
2023-04-25T06:49:18.755Z,7.10
2023-04-25T06:51:45.393Z,7.95
2023-04-25T06:54:12.118Z,7.07
2023-04-25T06:56:38.901Z,6.88
2023-04-25T06:59:05.582Z,6.68
2023-04-25T07:01:32.219Z,7.47
2023-04-25T07:03:58.973Z,6.72
2023-04-25T07:06:26.882Z,7.35
2023-04-25T07:08:53.596Z,7.10
2023-04-25T07:11:20.660Z,7.43
2023-04-25T07:13:47.321Z,7.60
2023-04-25T07:16:14.028Z,7.00
2023-04-25T07:18:40.707Z,6.93
2023-04-25T07:21:07.387Z,6.90
2023-04-25T07:23:34.015Z,7.57
2023-04-25T07:26:00.709Z,7.03
2023-04-25T07:28:27.414Z,7.20
2023-04-25T07:30:54.043Z,7.75
2023-04-25T07:33:21.514Z,6.90
2023-04-25T07:35:48.347Z,6.90
2023-04-25T07:38:15.010Z,7.07
2023-04-25T07:40:41.641Z,7.35
2023-04-25T07:43:08.470Z,6.50
2023-04-25T07:45:35.196Z,7.00
2023-04-25T07:48:01.915Z,6.43
2023-04-25T07:50:28.581Z,6.80
2023-04-25T07:52:55.221Z,6.97
2023-04-25T07:55:21.960Z,6.57
2023-04-25T07:57:48.594Z,6.80
2023-04-25T08:00:16.104Z,6.40
2023-04-25T08:02:42.967Z,6.18
2023-04-25T08:05:12.876Z,7.00
2023-04-25T08:07:39.936Z,7.00
2023-04-25T08:10:07.834Z,5.65
2023-04-25T08:12:34.594Z,5.47
2023-04-25T08:15:01.238Z,6.07
2023-04-25T08:17:28.427Z,6.35
2023-04-25T08:19:55.124Z,5.70
2023-04-25T08:22:21.752Z,6.10
2023-04-25T08:24:48.382Z,5.60
2023-04-25T08:27:15.285Z,5.10
2023-04-25T08:29:43.027Z,5.03
2023-04-25T08:32:09.674Z,5.40
2023-04-25T08:34:37.757Z,5.40
2023-04-25T08:37:05.402Z,4.50
2023-04-25T08:39:32.040Z,5.20
2023-04-25T08:41:58.704Z,4.80
2023-04-25T08:44:25.994Z,4.50
2023-04-25T08:46:54.056Z,5.20
2023-04-25T08:49:20.740Z,4.78
2023-04-25T08:51:48.329Z,4.63
2023-04-25T08:54:33.648Z,4.35
2023-04-25T08:57:04.733Z,4.55
2023-04-25T08:59:33.104Z,5.10
2023-04-25T09:01:59.779Z,4.57
2023-04-25T09:04:26.800Z,4.63
2023-04-25T09:06:53.448Z,4.32
2023-04-25T09:09:20.241Z,4.65
2023-04-25T09:11:46.994Z,4.32
2023-04-25T09:14:26.047Z,4.80
2023-04-25T09:17:01.543Z,4.75
2023-04-25T09:19:40.893Z,4.80
2023-04-25T09:22:08.880Z,5.03
2023-04-25T09:24:42.465Z,4.65
2023-04-25T09:27:11.831Z,4.78
2023-04-25T09:29:42.039Z,4.70
2023-04-25T09:32:20.179Z,4.70
2023-04-25T09:34:58.353Z,5.05
2023-04-25T09:37:30.464Z,5.30
2023-04-25T09:40:06.749Z,7.28
2023-04-25T09:42:35.487Z,5.00
2023-04-25T09:45:03.401Z,4.90
2023-04-25T09:47:30.118Z,5.10
2023-04-25T09:49:56.806Z,5.30
2023-04-25T09:52:26.080Z,5.68
2023-04-25T09:54:53.616Z,5.60
2023-04-25T09:57:25.560Z,5.50
2023-04-25T09:59:54.360Z,5.95
2023-04-25T10:02:23.352Z,5.93
2023-04-25T10:04:53.612Z,5.72
2023-04-25T10:07:22.348Z,5.60
2023-04-25T10:09:52.841Z,6.40
2023-04-25T10:12:19.930Z,6.32
2023-04-25T10:14:47.653Z,6.00
2023-04-25T10:17:15.225Z,5.30
2023-04-25T10:19:42.597Z,6.18
2023-04-25T10:22:15.754Z,6.05
2023-04-25T10:24:43.860Z,6.45
2023-04-25T10:27:11.291Z,6.65
2023-04-25T10:29:37.987Z,6.80
2023-04-25T10:32:05.149Z,7.22
2023-04-25T10:34:47.891Z,6.95
2023-04-25T10:37:14.871Z,7.20
2023-04-25T10:39:42.528Z,6.80
2023-04-25T10:42:09.334Z,6.80
2023-04-25T10:44:38.584Z,6.60
2023-04-25T10:47:07.974Z,6.82
2023-04-25T10:49:35.866Z,6.78
2023-04-25T10:52:14.115Z,6.65
2023-04-25T10:54:57.182Z,6.80
2023-04-25T10:57:30.765Z,7.15
2023-04-25T11:00:07.143Z,7.05
2023-04-25T11:02:38.385Z,5.93
2023-04-25T11:05:06.547Z,5.95
2023-04-25T11:07:36.125Z,6.40
2023-04-25T11:10:05.114Z,6.30
2023-04-25T11:12:33.130Z,6.38
2023-04-25T11:15:07.478Z,5.50
2023-04-25T11:17:34.793Z,6.32
2023-04-25T11:20:01.780Z,6.65
2023-04-25T11:22:29.445Z,6.93
2023-04-25T11:24:56.137Z,6.45
2023-04-25T11:27:22.950Z,5.80
2023-04-25T11:29:49.647Z,8.02
2023-04-25T11:32:17.712Z,5.82
2023-04-25T11:34:46.219Z,5.90
2023-04-25T11:37:13.615Z,7.00
2023-04-25T11:39:45.949Z,5.82
2023-04-25T11:42:13.697Z,5.85
2023-04-25T11:44:41.729Z,5.93
2023-04-25T11:47:08.509Z,6.60
2023-04-25T11:49:36.674Z,5.40
2023-04-25T11:52:03.927Z,6.95
2023-04-25T11:54:30.742Z,6.50
2023-04-25T11:56:57.712Z,6.13
2023-04-25T11:59:26.310Z,6.10
2023-04-25T12:01:53.428Z,6.10
2023-04-25T12:04:25.752Z,5.65
2023-04-25T12:06:56.311Z,6.60
2023-04-25T12:09:33.291Z,6.68
2023-04-25T12:12:03.776Z,6.72
2023-04-25T12:14:36.576Z,5.90
2023-04-25T12:17:05.052Z,6.47
2023-04-25T12:19:36.399Z,5.85
2023-04-25T12:22:04.180Z,6.38
2023-04-25T12:24:36.938Z,6.35
2023-04-25T12:27:06.993Z,6.18
2023-04-25T12:29:48.444Z,6.18
2023-04-25T12:32:16.117Z,5.93
2023-04-25T12:34:43.074Z,6.88
2023-04-25T12:37:10.034Z,6.38
2023-04-25T12:39:36.786Z,7.13
2023-04-25T12:42:05.621Z,5.78
2023-04-25T12:44:33.619Z,5.90
2023-04-25T12:47:01.044Z,5.72
2023-04-25T12:49:27.817Z,5.75
2023-04-25T12:51:54.463Z,6.43
2023-04-25T12:54:21.176Z,6.03
2023-04-25T12:56:48.290Z,5.82
2023-04-25T12:59:15.035Z,5.70
2023-04-25T13:01:41.828Z,5.88
2023-04-25T13:04:08.711Z,5.80
2023-04-25T13:06:35.464Z,5.75
2023-04-25T13:09:02.407Z,6.00
2023-04-25T13:14:01.308Z,6.40
2023-04-25T13:16:28.274Z,5.25
2023-04-25T13:18:56.982Z,5.20
2023-04-25T13:21:23.618Z,5.80
2023-04-25T13:23:50.523Z,5.28
2023-04-25T13:26:17.380Z,5.45
2023-04-25T13:28:44.928Z,6.30
2023-04-25T13:31:11.930Z,4.95
2023-04-25T13:33:38.595Z,5.60
2023-04-25T13:36:05.335Z,5.82
2023-04-25T13:38:32.051Z,5.68
2023-04-25T13:40:58.710Z,5.68
2023-04-25T13:43:25.369Z,5.55
2023-04-25T13:45:52.536Z,5.50
2023-04-25T13:48:20.370Z,5.60
2023-04-25T13:50:47.247Z,5.60
2023-04-25T13:53:14.058Z,5.70
2023-04-25T13:55:40.735Z,5.18
2023-04-25T13:58:08.960Z,6.00
2023-04-25T14:00:40.703Z,5.25
2023-04-25T14:03:10.638Z,5.05
2023-04-25T14:05:41.066Z,5.10
2023-04-25T14:08:10.596Z,5.40
2023-04-25T14:10:37.985Z,5.38
2023-04-25T14:13:05.495Z,5.55
2023-04-25T14:15:35.700Z,5.30
2023-04-25T14:18:02.815Z,5.57
2023-04-25T14:20:30.421Z,6.22
2023-04-25T14:22:58.967Z,5.30
2023-04-25T14:25:26.389Z,5.60
2023-04-25T14:27:53.408Z,5.80
2023-04-25T14:30:21.661Z,5.90
2023-04-25T14:32:50.548Z,5.65
2023-04-25T14:35:17.495Z,5.32
2023-04-25T14:37:44.218Z,6.13
2023-04-25T14:40:11.857Z,5.35
2023-04-25T14:42:38.898Z,5.72
2023-04-25T14:45:10.263Z,5.63
2023-04-25T14:47:40.359Z,5.07
2023-04-25T14:50:08.110Z,5.45
2023-04-25T14:52:34.882Z,5.65
2023-04-25T14:55:05.758Z,4.70
2023-04-25T14:57:33.589Z,5.57
2023-04-25T15:00:00.648Z,5.05
2023-04-25T15:02:27.534Z,4.95
2023-04-25T15:04:55.521Z,5.50
2023-04-25T15:07:22.873Z,5.25
2023-04-25T15:09:49.851Z,5.20
2023-04-25T15:12:16.604Z,5.30
2023-04-25T15:14:43.224Z,5.50
2023-04-25T15:17:09.835Z,5.40
2023-04-25T15:19:37.469Z,5.68
2023-04-25T15:22:04.490Z,5.65
2023-04-25T15:24:31.177Z,5.50
2023-04-25T15:26:57.817Z,5.10
2023-04-25T15:29:24.512Z,5.55
2023-04-25T15:31:51.436Z,6.00
2023-04-25T15:34:18.137Z,5.90
2023-04-25T15:36:44.823Z,6.03
2023-04-25T15:39:11.473Z,5.18
2023-04-25T15:41:38.159Z,5.15
2023-04-25T15:44:05.280Z,6.00
2023-04-25T15:46:32.022Z,5.38
2023-04-25T15:48:58.745Z,5.30
2023-04-25T15:51:25.510Z,5.18
2023-04-25T15:53:52.250Z,4.90
2023-04-25T15:56:19.573Z,5.10
2023-04-25T15:58:46.256Z,5.00
2023-04-25T16:01:13.654Z,4.63
2023-04-25T16:03:40.871Z,5.82
2023-04-25T16:06:08.108Z,5.13
2023-04-25T16:08:35.798Z,4.68
2023-04-25T16:11:03.358Z,4.90
2023-04-25T16:13:30.174Z,5.25
2023-04-25T16:15:57.657Z,5.03
2023-04-25T16:18:24.461Z,4.50
2023-04-25T16:20:51.154Z,4.82
2023-04-25T16:23:18.521Z,4.80
2023-04-25T16:25:45.386Z,5.20
2023-04-25T16:28:12.039Z,4.70
2023-04-25T16:30:38.744Z,5.45
2023-04-25T16:33:05.457Z,5.10
2023-04-25T16:35:32.494Z,5.30
2023-04-25T16:37:59.497Z,5.20
2023-04-25T16:40:26.838Z,5.05
2023-04-25T16:42:53.476Z,4.97
2023-04-25T16:45:21.080Z,5.38
2023-04-25T16:47:47.759Z,4.85
2023-04-25T16:50:15.196Z,5.25
2023-04-25T16:52:44.167Z,5.00
2023-04-25T16:55:11.138Z,4.90
2023-04-25T16:57:37.957Z,4.85
2023-04-25T17:00:06.489Z,5.20
2023-04-25T17:02:33.177Z,5.00
2023-04-25T17:05:00.070Z,5.30
2023-04-25T17:07:26.831Z,5.30
2023-04-25T17:09:53.559Z,5.50
2023-04-25T17:12:21.353Z,5.78
2023-04-25T17:14:49.186Z,5.10
2023-04-25T17:17:16.548Z,4.80
2023-04-25T17:19:43.166Z,5.30
2023-04-25T17:22:09.885Z,5.78
2023-04-25T17:24:36.629Z,5.40
2023-04-25T17:27:03.412Z,6.70
2023-04-25T17:29:30.001Z,5.50
2023-04-25T17:31:57.120Z,5.50
2023-04-25T17:34:23.804Z,4.93
2023-04-25T17:36:50.453Z,5.40
2023-04-25T17:39:17.382Z,5.50
2023-04-25T17:41:44.722Z,5.07
2023-04-25T17:44:11.477Z,4.97
2023-04-25T17:46:38.177Z,5.10
2023-04-25T17:49:05.068Z,5.38
2023-04-25T17:51:31.777Z,5.57
2023-04-25T17:53:58.405Z,5.07
2023-04-25T17:56:26.981Z,4.80
2023-04-25T17:58:54.857Z,4.82
2023-04-25T18:01:21.888Z,5.78
2023-04-25T18:03:50.054Z,5.65
2023-04-25T18:06:17.958Z,5.50
2023-04-25T18:08:45.065Z,5.90
2023-04-25T18:11:12.369Z,5.43
2023-04-25T18:13:40.692Z,5.20
2023-04-25T18:16:07.823Z,5.90
2023-04-25T18:18:36.092Z,5.95
2023-04-25T18:21:05.448Z,5.50
2023-04-25T18:23:35.591Z,5.90
2023-04-25T18:26:04.017Z,5.65
2023-04-25T18:28:30.661Z,5.38
2023-04-25T18:30:57.965Z,5.57
2023-04-25T18:33:25.204Z,5.40
2023-04-25T18:38:34.156Z,5.85
2023-04-25T18:41:15.416Z,6.10
2023-04-25T18:43:49.460Z,5.20
2023-04-25T18:46:17.600Z,5.00
2023-04-25T18:48:44.410Z,5.40
2023-04-25T18:51:11.192Z,5.63
2023-04-25T18:53:37.967Z,5.90
2023-04-25T18:56:04.788Z,5.82
2023-04-25T18:58:32.406Z,6.00
2023-04-25T19:00:59.659Z,5.53
2023-04-25T19:03:27.278Z,5.47
2023-04-25T19:05:54.244Z,5.80
2023-04-25T19:08:21.630Z,5.30
2023-04-25T19:10:49.947Z,5.65
2023-04-25T19:13:16.559Z,5.57
2023-04-25T19:15:43.160Z,7.78
2023-04-25T19:18:09.795Z,5.43
2023-04-25T19:20:36.491Z,5.53
2023-04-25T19:23:05.070Z,5.57
2023-04-25T19:25:32.116Z,5.28
2023-04-25T19:28:00.558Z,5.85
2023-04-25T19:30:29.218Z,5.95
2023-04-25T19:32:59.070Z,6.55
2023-04-25T19:35:30.633Z,6.20
2023-04-25T19:37:57.324Z,6.47
2023-04-25T19:40:24.007Z,6.80
2023-04-25T19:42:50.923Z,7.20
2023-04-25T19:45:17.874Z,6.15
2023-04-25T19:47:44.827Z,6.10
2023-04-25T19:50:11.929Z,6.47
2023-04-25T19:52:39.133Z,6.40
2023-04-25T19:55:06.424Z,5.72
2023-04-25T19:57:33.763Z,5.72
2023-04-25T20:00:01.813Z,6.18
2023-04-25T20:02:28.701Z,5.63
2023-04-25T20:04:55.528Z,5.78
2023-04-25T20:07:23.424Z,5.65
2023-04-25T20:09:50.258Z,6.07
2023-04-25T20:12:17.997Z,6.13
2023-04-25T20:14:45.026Z,5.40
2023-04-25T20:17:12.025Z,5.95
2023-04-25T20:19:39.259Z,5.68
2023-04-25T20:22:06.329Z,5.60
2023-04-25T20:24:32.958Z,5.80
2023-04-25T20:26:59.673Z,5.45
2023-04-25T20:29:26.727Z,6.18
2023-04-25T20:31:54.885Z,6.38
2023-04-25T20:34:22.284Z,6.50
2023-04-25T20:36:48.969Z,5.85
2023-04-25T20:39:15.656Z,5.90
2023-04-25T20:41:44.626Z,5.82
2023-04-25T20:44:12.550Z,5.55
2023-04-25T20:46:39.817Z,7.68
2023-04-25T20:49:06.446Z,5.72
2023-04-25T20:51:33.487Z,6.32
2023-04-25T20:54:00.486Z,5.85
2023-04-25T20:56:27.126Z,6.10
2023-04-25T20:58:55.588Z,6.00
2023-04-25T21:01:22.615Z,5.95
2023-04-25T21:03:50.101Z,6.38
2023-04-25T21:06:17.609Z,6.00
2023-04-25T21:08:44.278Z,6.20
2023-04-25T21:11:11.984Z,5.95
2023-04-25T21:13:38.810Z,6.15
2023-04-25T21:16:06.586Z,6.25
2023-04-25T21:18:34.695Z,6.40
2023-04-25T21:21:04.203Z,6.28
2023-04-25T21:23:31.764Z,6.18
2023-04-25T21:25:58.391Z,6.97
2023-04-25T21:28:25.159Z,6.80
2023-04-25T21:30:52.438Z,7.70
2023-04-25T21:33:19.374Z,6.82
2023-04-25T21:35:46.151Z,6.53
2023-04-25T21:38:12.990Z,6.57
2023-04-25T21:40:40.407Z,6.85
2023-04-25T21:43:07.411Z,6.40
2023-04-25T21:45:40.324Z,6.30
2023-04-25T21:48:18.271Z,6.20
2023-04-25T21:50:44.861Z,6.20
2023-04-25T21:53:11.576Z,6.32
2023-04-25T21:55:38.277Z,6.75
2023-04-25T21:58:04.931Z,6.05
2023-04-25T22:00:32.033Z,6.18
2023-04-25T22:03:00.044Z,6.20
2023-04-25T22:05:27.507Z,6.78
2023-04-25T22:07:57.013Z,6.88
2023-04-25T22:10:24.970Z,6.82
2023-04-25T22:12:52.209Z,6.88
2023-04-25T22:15:23.346Z,7.38
2023-04-25T22:17:55.228Z,6.40
2023-04-25T22:20:25.926Z,6.90
2023-04-25T22:22:54.420Z,6.65
2023-04-25T22:25:21.999Z,6.53
2023-04-25T22:27:49.243Z,6.25
2023-04-25T22:30:16.151Z,7.00
2023-04-25T22:32:43.195Z,7.20
2023-04-25T22:35:10.650Z,7.05
2023-04-25T22:37:37.682Z,7.75
2023-04-25T22:40:07.028Z,7.97
2023-04-25T22:42:44.122Z,7.32
2023-04-25T22:45:11.533Z,7.20
2023-04-25T22:47:39.523Z,6.90
2023-04-25T22:50:12.208Z,8.05
2023-04-25T22:52:38.967Z,8.50
2023-04-25T22:55:06.348Z,7.68
2023-04-25T22:57:33.112Z,7.85
2023-04-25T22:59:59.907Z,7.72
2023-04-25T23:02:27.393Z,6.78
2023-04-25T23:04:54.779Z,7.20
2023-04-25T23:07:21.553Z,7.53
2023-04-25T23:09:48.199Z,7.07
2023-04-25T23:12:18.667Z,7.50
2023-04-25T23:14:50.203Z,7.45
2023-04-25T23:17:16.794Z,7.68
2023-04-25T23:19:43.429Z,7.65
2023-04-25T23:22:10.054Z,8.48
2023-04-25T23:24:40.414Z,7.30
2023-04-25T23:27:07.574Z,7.38
2023-04-25T23:29:34.707Z,7.18
2023-04-25T23:32:04.483Z,7.40
2023-04-25T23:34:32.243Z,7.90
2023-04-25T23:37:04.312Z,7.43
2023-04-25T23:39:31.601Z,7.80
2023-04-25T23:41:58.205Z,7.03
2023-04-25T23:44:24.831Z,7.90
2023-04-25T23:46:51.432Z,7.32
2023-04-25T23:49:18.069Z,7.43
2023-04-25T23:51:44.823Z,7.28
2023-04-25T23:54:11.534Z,7.50
2023-04-25T23:56:38.160Z,7.82
2023-04-25T23:59:04.926Z,7.40
